createdAt,value
2018-03-27T00:02:10.431Z,93061.04
2018-03-27T00:04:37.982Z,93058.54
2018-03-27T00:07:05.877Z,93061.81
2018-03-27T00:09:33.422Z,93059.73
2018-03-27T00:12:00.984Z,93063.34
2018-03-27T00:14:28.721Z,93063.34
2018-03-27T00:16:56.273Z,93069.67
2018-03-27T00:19:23.835Z,93066.00
2018-03-27T00:21:51.437Z,93060.69
2018-03-27T00:24:18.989Z,93059.44
2018-03-27T00:26:58.320Z,93072.23
2018-03-27T00:29:37.539Z,93059.38
2018-03-27T00:32:17.158Z,93061.08
2018-03-27T00:34:56.374Z,93063.11
2018-03-27T00:37:35.702Z,93063.11
2018-03-27T00:40:14.791Z,93064.36
2018-03-27T00:42:50.191Z,93063.56
2018-03-27T00:45:17.729Z,93059.84
2018-03-27T00:47:45.284Z,93062.73
2018-03-27T00:50:13.150Z,93064.83
2018-03-27T00:52:40.709Z,93064.05
2018-03-27T00:55:08.257Z,93061.09
2018-03-27T00:57:35.838Z,93056.48
2018-03-27T01:00:03.398Z,93061.92
2018-03-27T01:02:30.949Z,93066.88
2018-03-27T01:05:04.113Z,93064.34
2018-03-27T01:07:31.664Z,93068.48
2018-03-27T01:09:59.236Z,93065.65
2018-03-27T01:12:27.101Z,93065.22
2018-03-27T01:14:54.661Z,93066.47
2018-03-27T01:17:22.202Z,93065.65
2018-03-27T01:19:49.790Z,93070.63
2018-03-27T01:22:17.404Z,93067.36
2018-03-27T01:24:44.966Z,93057.01
2018-03-27T01:27:12.554Z,93063.59
2018-03-27T01:29:40.098Z,93059.86
2018-03-27T01:32:07.678Z,93052.45
2018-03-27T01:34:35.324Z,93054.05
2018-03-27T01:37:02.841Z,93052.75
2018-03-27T01:39:30.399Z,93048.70
2018-03-27T01:41:58.262Z,93051.21
2018-03-27T01:44:25.805Z,93048.36
2018-03-27T01:46:53.354Z,93056.28
2018-03-27T01:49:21.155Z,93050.85
2018-03-27T01:51:48.703Z,93047.12
2018-03-27T01:54:16.255Z,93050.06
2018-03-27T01:56:43.836Z,93042.63
2018-03-27T01:59:11.404Z,93045.11
2018-03-27T02:01:38.949Z,93044.27
2018-03-27T02:04:06.552Z,93045.11
2018-03-27T02:06:34.109Z,93045.45
2018-03-27T02:09:01.692Z,93049.25
2018-03-27T02:11:34.986Z,93049.18
2018-03-27T02:14:08.100Z,93050.36
2018-03-27T02:16:41.418Z,93052.39
2018-03-27T02:19:14.545Z,93046.90
2018-03-27T02:21:41.536Z,93051.15
2018-03-27T02:24:09.531Z,93056.12
2018-03-27T02:26:37.078Z,93058.20
2018-03-27T02:29:04.647Z,93059.86
2018-03-27T02:31:32.227Z,93059.02
2018-03-27T02:33:59.781Z,93056.19
2018-03-27T02:36:27.329Z,93061.56
2018-03-27T02:38:55.137Z,93059.89
2018-03-27T02:41:22.681Z,93061.20
2018-03-27T02:43:50.228Z,93062.50
2018-03-27T02:46:17.854Z,93060.02
2018-03-27T02:48:45.423Z,93065.00
2018-03-27T02:51:13.038Z,93067.05
2018-03-27T02:53:40.629Z,93059.60
2018-03-27T02:56:08.184Z,93062.02
2018-03-27T02:58:35.761Z,93069.53
2018-03-27T03:01:03.376Z,93063.73
2018-03-27T03:03:30.933Z,93067.00
2018-03-27T03:05:58.489Z,93066.64
2018-03-27T03:08:26.177Z,93071.98
2018-03-27T03:10:53.734Z,93071.45
2018-03-27T03:13:21.281Z,93071.09
2018-03-27T03:15:48.873Z,93071.96
2018-03-27T03:18:16.426Z,93069.60
2018-03-27T03:20:43.974Z,93069.19
2018-03-27T03:23:11.613Z,93076.23
2018-03-27T03:25:39.157Z,93072.08
2018-03-27T03:28:06.711Z,93076.22
2018-03-27T03:30:34.396Z,93074.88
2018-03-27T03:33:01.971Z,93075.41
2018-03-27T03:35:29.526Z,93082.45
2018-03-27T03:37:57.278Z,93080.37
2018-03-27T03:40:24.830Z,93078.29
2018-03-27T03:42:52.381Z,93086.06
2018-03-27T03:45:20.198Z,93081.61
2018-03-27T03:47:47.749Z,93080.83
2018-03-27T03:50:15.302Z,93079.65
2018-03-27T03:52:43.026Z,93083.84
2018-03-27T03:55:10.593Z,93083.80
2018-03-27T03:57:38.133Z,93079.66
2018-03-27T04:00:05.895Z,93080.11
2018-03-27T04:02:33.447Z,93088.04
2018-03-27T04:05:00.988Z,93092.97
2018-03-27T04:07:28.566Z,93096.33
2018-03-27T04:09:56.114Z,93097.94
2018-03-27T04:12:23.670Z,93102.91
2018-03-27T04:14:51.261Z,93097.88
2018-03-27T04:17:18.801Z,93106.58
2018-03-27T04:19:46.343Z,93107.05
2018-03-27T04:22:13.934Z,93111.13
2018-03-27T04:24:41.485Z,93115.69
2018-03-27T04:27:09.041Z,93117.41
2018-03-27T04:29:36.628Z,93117.45
2018-03-27T04:32:04.178Z,93116.27
2018-03-27T04:34:31.723Z,93119.94
2018-03-27T04:36:59.302Z,93119.94
2018-03-27T04:39:26.855Z,93120.35
2018-03-27T04:41:54.470Z,93127.81
2018-03-27T04:44:22.063Z,93132.52
2018-03-27T04:46:49.604Z,93130.05
2018-03-27T04:49:17.173Z,93136.20
2018-03-27T04:51:44.770Z,93138.16
2018-03-27T04:54:12.310Z,93135.63
2018-03-27T04:56:39.861Z,93142.47
2018-03-27T04:59:07.439Z,93142.11
2018-03-27T05:01:34.991Z,93142.88
2018-03-27T05:04:02.553Z,93142.10
2018-03-27T05:06:30.423Z,93139.67
2018-03-27T05:08:57.981Z,93140.70
2018-03-27T05:11:25.538Z,93148.09
2018-03-27T05:13:53.162Z,93149.25
2018-03-27T05:16:20.745Z,93155.26
2018-03-27T05:18:48.317Z,93160.27
2018-03-27T05:21:15.898Z,93162.39
2018-03-27T05:23:43.453Z,93164.16
2018-03-27T05:26:11.013Z,93163.28
2018-03-27T05:28:38.606Z,93161.58
2018-03-27T05:31:06.185Z,93160.33
2018-03-27T05:33:33.759Z,93161.63
2018-03-27T05:36:01.477Z,93160.48
2018-03-27T05:38:29.034Z,93162.14
2018-03-27T05:40:56.614Z,93161.63
2018-03-27T05:43:24.210Z,93169.12
2018-03-27T05:45:51.761Z,93171.14
2018-03-27T05:48:19.310Z,93170.22
2018-03-27T05:50:46.895Z,93166.80
2018-03-27T05:53:14.445Z,93168.05
2018-03-27T05:55:41.994Z,93178.75
2018-03-27T05:58:09.574Z,93170.84
2018-03-27T06:00:37.126Z,93171.56
2018-03-27T06:03:04.671Z,93176.94
2018-03-27T06:05:32.322Z,93173.47
2018-03-27T06:07:59.853Z,93173.00
2018-03-27T06:10:27.393Z,93169.16
2018-03-27T06:12:55.274Z,93160.70
2018-03-27T06:15:22.815Z,93168.91
2018-03-27T06:17:50.359Z,93171.59
2018-03-27T06:20:17.961Z,93174.02
2018-03-27T06:22:45.523Z,93175.13
2018-03-27T06:25:13.086Z,93186.59
2018-03-27T06:27:40.677Z,93187.29
2018-03-27T06:30:08.232Z,93195.41
2018-03-27T06:32:35.778Z,93190.53
2018-03-27T06:35:03.682Z,93201.66
2018-03-27T06:37:31.227Z,93203.22
2018-03-27T06:39:58.770Z,93207.73
2018-03-27T06:42:26.453Z,93208.38
2018-03-27T06:44:53.998Z,93206.14
2018-03-27T06:47:21.544Z,93210.11
2018-03-27T06:49:49.138Z,93207.08
2018-03-27T06:52:16.706Z,93208.70
2018-03-27T06:54:44.249Z,93209.63
2018-03-27T06:57:11.969Z,93205.31
2018-03-27T06:59:39.516Z,93205.35
2018-03-27T07:02:07.088Z,93205.58
2018-03-27T07:04:34.960Z,93212.39
2018-03-27T07:07:02.533Z,93216.11
2018-03-27T07:09:30.075Z,93215.98
2018-03-27T07:11:57.662Z,93213.85
2018-03-27T07:14:25.888Z,93215.20
2018-03-27T07:16:53.459Z,93215.20
2018-03-27T07:19:21.053Z,93217.77
2018-03-27T07:21:48.604Z,93225.74
2018-03-27T07:24:16.150Z,93233.41
2018-03-27T07:26:44.175Z,93237.09
2018-03-27T07:29:11.724Z,93246.75
2018-03-27T07:31:39.265Z,93246.20
2018-03-27T07:34:07.082Z,93250.44
2018-03-27T07:36:34.634Z,93244.06
2018-03-27T07:39:02.175Z,93245.22
2018-03-27T07:41:29.711Z,93247.75
2018-03-27T07:43:57.264Z,93256.20
2018-03-27T07:46:24.993Z,93248.83
2018-03-27T07:51:19.370Z,93261.67
2018-03-27T07:53:46.947Z,93262.31
2018-03-27T07:56:14.487Z,93268.98
2018-03-27T07:58:42.047Z,93266.23
2018-03-27T08:01:09.774Z,93268.57
2018-03-27T08:03:37.343Z,93269.66
2018-03-27T08:06:04.895Z,93275.19
2018-03-27T08:08:32.594Z,93279.48
2018-03-27T08:11:00.214Z,93277.48
2018-03-27T08:13:27.697Z,93280.39
2018-03-27T08:15:55.266Z,93274.36
2018-03-27T08:18:22.805Z,93277.02
2018-03-27T08:20:50.351Z,93279.88
2018-03-27T08:23:18.038Z,93275.77
2018-03-27T08:25:45.590Z,93278.83
2018-03-27T08:28:13.137Z,93275.78
2018-03-27T08:30:40.740Z,93274.38
2018-03-27T08:33:08.278Z,93274.12
2018-03-27T08:35:35.822Z,93273.73
2018-03-27T08:38:03.543Z,93270.87
2018-03-27T08:40:31.087Z,93269.83
2018-03-27T08:42:58.630Z,93272.44
2018-03-27T08:45:26.204Z,93268.74
2018-03-27T08:47:53.750Z,93267.34
2018-03-27T08:50:21.312Z,93275.78
2018-03-27T08:52:48.999Z,93282.65
2018-03-27T08:55:16.541Z,93289.62
2018-03-27T08:57:44.081Z,93285.63
2018-03-27T09:00:11.797Z,93280.02
2018-03-27T09:02:39.329Z,93280.41
2018-03-27T09:05:06.886Z,93285.06
2018-03-27T09:07:34.470Z,93283.05
2018-03-27T09:10:02.012Z,93276.72
2018-03-27T09:12:29.597Z,93279.06
2018-03-27T09:14:57.453Z,93274.48
2018-03-27T09:17:25.002Z,93277.27
2018-03-27T09:19:52.538Z,93272.39
2018-03-27T09:22:20.151Z,93266.48
2018-03-27T09:24:47.706Z,93263.14
2018-03-27T09:27:15.249Z,93266.86
2018-03-27T09:29:42.821Z,93272.47
2018-03-27T09:32:10.363Z,93260.94
2018-03-27T09:34:37.904Z,93257.20
2018-03-27T09:37:05.618Z,93257.13
2018-03-27T09:39:33.156Z,93258.14
2018-03-27T09:42:00.701Z,93256.07
2018-03-27T09:44:28.399Z,93256.36
2018-03-27T09:46:55.936Z,93257.91
2018-03-27T09:49:23.475Z,93261.43
2018-03-27T09:51:51.058Z,93257.47
2018-03-27T09:54:18.619Z,93260.50
2018-03-27T09:56:46.161Z,93254.06
2018-03-27T09:59:14.069Z,93257.05
2018-03-27T10:01:41.605Z,93254.44
2018-03-27T10:04:09.166Z,93252.09
2018-03-27T10:06:36.755Z,93253.08
2018-03-27T10:09:04.341Z,93244.36
2018-03-27T10:11:31.889Z,93247.04
2018-03-27T10:13:59.469Z,93240.87
2018-03-27T10:16:27.015Z,93244.86
2018-03-27T10:18:54.564Z,93242.98
2018-03-27T10:21:22.127Z,93241.53
2018-03-27T10:23:49.671Z,93245.16
2018-03-27T10:26:17.222Z,93250.61
2018-03-27T10:28:44.872Z,93251.09
2018-03-27T10:31:12.430Z,93249.50
2018-03-27T10:33:39.966Z,93244.46
2018-03-27T10:36:07.825Z,93253.58
2018-03-27T10:38:35.367Z,93258.41
2018-03-27T10:41:02.935Z,93261.23
2018-03-27T10:43:30.713Z,93259.30
2018-03-27T10:45:58.293Z,93257.55
2018-03-27T10:48:25.835Z,93263.17
2018-03-27T10:50:53.498Z,93264.56
2018-03-27T10:53:21.037Z,93264.33
2018-03-27T10:55:48.605Z,93271.36
2018-03-27T10:58:16.189Z,93263.82
2018-03-27T11:00:43.728Z,93274.62
2018-03-27T11:03:11.291Z,93280.17
2018-03-27T11:05:38.916Z,93277.87
2018-03-27T11:08:06.464Z,93270.87
2018-03-27T11:10:33.998Z,93272.71
2018-03-27T11:13:01.713Z,93267.81
2018-03-27T11:15:29.246Z,93264.73
2018-03-27T11:17:56.782Z,93272.13
2018-03-27T11:20:24.378Z,93271.33
2018-03-27T11:22:51.934Z,93272.91
2018-03-27T11:25:19.468Z,93268.09
2018-03-27T11:27:47.058Z,93269.45
2018-03-27T11:30:14.622Z,93262.12
2018-03-27T11:32:42.180Z,93263.28
2018-03-27T11:35:09.908Z,93266.48
2018-03-27T11:37:37.451Z,93277.13
2018-03-27T11:40:05.036Z,93276.22
2018-03-27T11:42:32.777Z,93272.25
2018-03-27T11:45:00.320Z,93274.65
2018-03-27T11:47:27.869Z,93273.29
2018-03-27T11:49:55.459Z,93272.25
2018-03-27T11:52:23.015Z,93272.50
2018-03-27T11:54:50.581Z,93261.94
2018-03-27T11:57:18.289Z,93263.92
2018-03-27T11:59:45.835Z,93261.66
2018-03-27T12:02:13.426Z,93261.67
2018-03-27T12:04:41.027Z,93255.58
2018-03-27T12:07:08.592Z,93254.95
2018-03-27T12:09:36.145Z,93254.53
2018-03-27T12:12:04.727Z,93257.76
2018-03-27T12:14:32.278Z,93261.09
2018-03-27T12:16:59.825Z,93258.38
2018-03-27T12:19:27.480Z,93258.51
2018-03-27T12:21:55.026Z,93250.53
2018-03-27T12:24:22.578Z,93258.42
2018-03-27T12:26:50.178Z,93258.91
2018-03-27T12:29:17.724Z,93267.26
2018-03-27T12:31:45.316Z,93268.47
2018-03-27T12:34:12.855Z,93261.82
2018-03-27T12:36:40.413Z,93251.23
2018-03-27T12:39:08.005Z,93255.14
2018-03-27T12:41:35.561Z,93258.31
2018-03-27T12:44:03.120Z,93254.33
2018-03-27T12:46:30.706Z,93258.91
2018-03-27T12:48:58.255Z,93254.84
2018-03-27T12:51:25.810Z,93256.02
2018-03-27T12:53:53.546Z,93249.34
2018-03-27T12:56:21.089Z,93245.67
2018-03-27T12:58:48.641Z,93256.45
2018-03-27T13:01:16.323Z,93262.09
2018-03-27T13:03:43.885Z,93261.48
2018-03-27T13:06:11.429Z,93265.62
2018-03-27T13:08:39.013Z,93264.22
2018-03-27T13:11:06.571Z,93268.29
2018-03-27T13:13:34.113Z,93269.22
2018-03-27T13:16:01.847Z,93267.48
2018-03-27T13:18:29.402Z,93266.13
2018-03-27T13:20:56.959Z,93269.59
2018-03-27T13:23:24.648Z,93269.44
2018-03-27T13:25:52.195Z,93273.63
2018-03-27T13:28:19.748Z,93274.16
2018-03-27T13:30:47.326Z,93275.16
2018-03-27T13:33:14.874Z,93270.94
2018-03-27T13:35:42.425Z,93277.09
2018-03-27T13:38:10.022Z,93272.44
2018-03-27T13:40:37.583Z,93277.09
2018-03-27T13:43:05.131Z,93281.25
2018-03-27T13:45:32.798Z,93278.58
2018-03-27T13:48:00.438Z,93280.54
2018-03-27T13:50:27.951Z,93274.67
2018-03-27T13:52:55.840Z,93274.59
2018-03-27T13:55:23.390Z,93270.58
2018-03-27T13:57:50.983Z,93272.58
2018-03-27T14:00:18.714Z,93272.31
2018-03-27T14:02:46.272Z,93272.55
2018-03-27T14:05:13.817Z,93276.03
2018-03-27T14:07:41.534Z,93277.66
2018-03-27T14:10:09.086Z,93272.36
2018-03-27T14:12:36.643Z,93270.05
2018-03-27T14:15:04.317Z,93271.50
2018-03-27T14:17:31.858Z,93271.42
2018-03-27T14:19:59.406Z,93269.09
2018-03-27T14:22:27.006Z,93274.50
2018-03-27T14:24:54.640Z,93264.09
2018-03-27T14:27:22.176Z,93275.24
2018-03-27T14:29:49.764Z,93265.34
2018-03-27T14:32:17.327Z,93273.11
2018-03-27T14:34:44.878Z,93273.34
2018-03-27T14:37:12.576Z,93278.28
2018-03-27T14:39:41.039Z,93280.03
2018-03-27T14:42:08.582Z,93277.87
2018-03-27T14:44:36.475Z,93279.55
2018-03-27T14:47:04.032Z,93280.02
2018-03-27T14:49:31.845Z,93266.72
2018-03-27T14:51:59.473Z,93274.92
2018-03-27T14:54:27.043Z,93274.22
2018-03-27T14:56:54.593Z,93281.33
2018-03-27T14:59:22.191Z,93280.38
2018-03-27T15:01:49.741Z,93287.99
2018-03-27T15:04:17.303Z,93297.75
2018-03-27T15:06:44.981Z,93299.98
2018-03-27T15:09:12.539Z,93299.28
2018-03-27T15:11:40.105Z,93298.53
2018-03-27T15:14:07.680Z,93288.17
2018-03-27T15:16:35.240Z,93295.25
2018-03-27T15:19:02.791Z,93297.65
2018-03-27T15:21:30.402Z,93293.84
2018-03-27T15:23:57.956Z,93292.73
2018-03-27T15:26:25.502Z,93293.97
2018-03-27T15:28:53.077Z,93304.66
2018-03-27T15:31:20.641Z,93299.55
2018-03-27T15:33:48.190Z,93305.31
2018-03-27T15:36:15.789Z,93305.56
2018-03-27T15:38:43.337Z,93306.02
2018-03-27T15:41:10.897Z,93314.27
2018-03-27T15:43:38.633Z,93316.03
2018-03-27T15:46:06.193Z,93317.27
2018-03-27T15:48:33.747Z,93316.23
2018-03-27T15:51:01.451Z,93323.34
2018-03-27T15:53:28.998Z,93321.76
2018-03-27T15:55:56.556Z,93329.63
2018-03-27T15:58:24.154Z,93321.16
2018-03-27T16:00:51.704Z,93322.38
2018-03-27T16:03:19.259Z,93325.57
2018-03-27T16:05:46.866Z,93325.25
2018-03-27T16:08:14.427Z,93323.36
2018-03-27T16:10:41.981Z,93320.81
2018-03-27T16:13:09.864Z,93319.20
2018-03-27T16:15:37.410Z,93322.94
2018-03-27T16:18:04.988Z,93325.11
2018-03-27T16:20:32.580Z,93326.41
2018-03-27T16:23:00.147Z,93323.51
2018-03-27T16:25:27.736Z,93333.99
2018-03-27T16:27:55.334Z,93333.38
2018-03-27T16:30:22.903Z,93333.11
2018-03-27T16:32:50.459Z,93333.81
2018-03-27T16:35:18.154Z,93326.98
2018-03-27T16:37:45.714Z,93327.89
2018-03-27T16:40:13.269Z,93326.70
2018-03-27T16:42:40.846Z,93334.36
2018-03-27T16:45:08.388Z,93338.04
2018-03-27T16:47:36.089Z,93334.50
2018-03-27T16:50:03.691Z,93339.80
2018-03-27T16:52:31.250Z,93342.84
2018-03-27T16:54:58.841Z,93350.80
2018-03-27T16:57:26.390Z,93356.39
2018-03-27T16:59:53.939Z,93351.38
2018-03-27T17:02:21.634Z,93355.94
2018-03-27T17:04:49.191Z,93354.73
2018-03-27T17:07:16.742Z,93358.92
2018-03-27T17:09:44.472Z,93367.66
2018-03-27T17:12:12.020Z,93367.71
2018-03-27T17:14:39.574Z,93372.80
2018-03-27T17:17:07.299Z,93373.63
2018-03-27T17:19:34.849Z,93373.18
2018-03-27T17:22:02.415Z,93377.86
2018-03-27T17:24:30.010Z,93375.16
2018-03-27T17:26:57.563Z,93372.34
2018-03-27T17:29:25.121Z,93374.54
2018-03-27T17:31:52.719Z,93375.19
2018-03-27T17:34:20.273Z,93372.89
2018-03-27T17:36:47.826Z,93378.84
2018-03-27T17:39:15.722Z,93384.33
2018-03-27T17:41:43.281Z,93383.57
2018-03-27T17:44:10.830Z,93387.29
2018-03-27T17:46:38.562Z,93394.39
2018-03-27T17:49:06.112Z,93401.01
2018-03-27T17:51:33.676Z,93396.94
2018-03-27T17:54:01.426Z,93398.98
2018-03-27T17:56:28.986Z,93404.35
2018-03-27T17:58:56.555Z,93399.84
2018-03-27T18:01:24.146Z,93400.63
2018-03-27T18:03:51.711Z,93407.25
2018-03-27T18:06:19.269Z,93409.31
2018-03-27T18:08:47.038Z,93412.59
2018-03-27T18:11:14.622Z,93415.11
2018-03-27T18:13:42.195Z,93414.69
2018-03-27T18:16:09.802Z,93417.89
2018-03-27T18:18:37.464Z,93417.86
2018-03-27T18:21:05.095Z,93414.14
2018-03-27T18:23:32.686Z,93421.13
2018-03-27T18:26:00.259Z,93428.55
2018-03-27T18:28:27.835Z,93432.20
2018-03-27T18:30:55.603Z,93435.06
2018-03-27T18:33:23.183Z,93442.39
2018-03-27T18:35:50.744Z,93445.26
2018-03-27T18:38:18.347Z,93445.19
2018-03-27T18:40:45.897Z,93444.39
2018-03-27T18:43:14.159Z,93442.73
2018-03-27T18:45:41.901Z,93443.91
2018-03-27T18:48:09.463Z,93440.19
2018-03-27T18:50:37.775Z,93435.19
2018-03-27T18:53:05.386Z,93443.42
2018-03-27T18:55:32.970Z,93452.91
2018-03-27T18:58:00.526Z,93445.84
2018-03-27T19:00:28.279Z,93448.35
2018-03-27T19:02:55.835Z,93444.59
2018-03-27T19:05:23.425Z,93455.34
2018-03-27T19:07:51.304Z,93454.86
2018-03-27T19:10:18.874Z,93461.94
2018-03-27T19:12:46.437Z,93458.62
2018-03-27T19:15:14.180Z,93459.83
2018-03-27T19:17:41.750Z,93457.77
2018-03-27T19:20:09.385Z,93457.27
2018-03-27T19:22:37.028Z,93458.44
2018-03-27T19:25:04.583Z,93463.78
2018-03-27T19:27:32.148Z,93463.37
2018-03-27T19:29:59.857Z,93471.61
2018-03-27T19:32:27.423Z,93477.37
2018-03-27T19:34:54.987Z,93479.81
2018-03-27T19:37:22.854Z,93479.81
2018-03-27T19:39:50.427Z,93490.61
2018-03-27T19:42:18.015Z,93493.96
2018-03-27T19:44:45.765Z,93493.09
2018-03-27T19:47:13.338Z,93498.52
2018-03-27T19:49:40.915Z,93496.83
2018-03-27T19:52:08.526Z,93496.86
2018-03-27T19:54:36.081Z,93498.14
2018-03-27T19:57:03.664Z,93497.83
2018-03-27T19:59:31.286Z,93493.66
2018-03-27T20:01:59.752Z,93488.73
2018-03-27T20:04:27.338Z,93488.38
2018-03-27T20:06:54.933Z,93478.04
2018-03-27T20:09:22.477Z,93474.80
2018-03-27T20:11:50.025Z,93480.18
2018-03-27T20:14:17.754Z,93480.22
2018-03-27T20:16:45.329Z,93479.39
2018-03-27T20:19:12.878Z,93485.63
2018-03-27T20:21:40.726Z,93480.28
2018-03-27T20:24:08.297Z,93472.01
2018-03-27T20:26:35.851Z,93479.05
2018-03-27T20:29:03.460Z,93482.70
2018-03-27T20:31:31.022Z,93480.22
2018-03-27T20:33:58.592Z,93472.77
2018-03-27T20:36:26.338Z,93471.04
2018-03-27T20:38:53.880Z,93465.70
2018-03-27T20:41:21.440Z,93466.97
2018-03-27T20:43:49.047Z,93471.14
2018-03-27T20:46:16.604Z,93465.31
2018-03-27T20:48:44.164Z,93462.01
2018-03-27T20:51:11.870Z,93460.84
2018-03-27T20:53:39.419Z,93456.32
2018-03-27T20:56:07.002Z,93456.36
2018-03-27T20:58:34.865Z,93455.26
2018-03-27T21:01:02.417Z,93457.46
2018-03-27T21:03:29.969Z,93454.32
2018-03-27T21:05:57.550Z,93463.11
2018-03-27T21:08:25.094Z,93459.80
2018-03-27T21:10:52.649Z,93452.87
2018-03-27T21:13:20.386Z,93452.10
2018-03-27T21:15:47.923Z,93450.03
2018-03-27T21:18:15.470Z,93453.28
2018-03-27T21:20:43.041Z,93446.95
2018-03-27T21:23:10.600Z,93441.60
2018-03-27T21:25:38.152Z,93440.74
2018-03-27T21:28:05.884Z,93437.44
2018-03-27T21:30:33.434Z,93437.02
2018-03-27T21:33:00.976Z,93432.47
2018-03-27T21:35:28.663Z,93434.44
2018-03-27T21:37:56.215Z,93438.54
2018-03-27T21:40:23.762Z,93433.92
2018-03-27T21:42:51.300Z,93440.02
2018-03-27T21:45:18.852Z,93441.23
2018-03-27T21:47:46.423Z,93439.16
2018-03-27T21:50:13.993Z,93441.64
2018-03-27T21:52:41.531Z,93443.74
2018-03-27T21:55:09.276Z,93440.40
2018-03-27T21:57:36.842Z,93443.67
2018-03-27T22:00:04.434Z,93440.77
2018-03-27T22:02:32.023Z,93441.16
2018-03-27T22:04:59.566Z,93432.51
2018-03-27T22:07:27.107Z,93428.33
2018-03-27T22:09:54.710Z,93428.78
2018-03-27T22:12:22.263Z,93418.89
2018-03-27T22:14:49.811Z,93417.23
2018-03-27T22:17:17.722Z,93411.03
2018-03-27T22:19:45.268Z,93407.34
2018-03-27T22:22:12.813Z,93408.20
2018-03-27T22:24:40.540Z,93408.24
2018-03-27T22:27:08.081Z,93405.42
2018-03-27T22:29:35.629Z,93402.59
2018-03-27T22:32:03.350Z,93403.91
2018-03-27T22:34:30.889Z,93401.48
2018-03-27T22:36:58.441Z,93406.08
2018-03-27T22:39:26.162Z,93406.56
2018-03-27T22:41:53.713Z,93407.07
2018-03-27T22:44:21.253Z,93412.89
2018-03-27T22:46:48.856Z,93404.72
2018-03-27T22:49:16.424Z,93410.13
2018-03-27T22:51:43.965Z,93408.92
2018-03-27T22:54:11.544Z,93413.50
2018-03-27T22:56:39.103Z,93411.05
2018-03-27T22:59:06.666Z,93410.64
2018-03-27T23:01:34.247Z,93406.13
2018-03-27T23:04:01.799Z,93400.34
2018-03-27T23:06:29.341Z,93402.81
2018-03-27T23:08:57.060Z,93399.09
2018-03-27T23:11:24.597Z,93392.07
2018-03-27T23:13:52.168Z,93394.93
2018-03-27T23:16:19.757Z,93396.59
2018-03-27T23:18:47.311Z,93401.89
2018-03-27T23:21:14.885Z,93393.22
2018-03-27T23:23:42.627Z,93393.63
2018-03-27T23:26:10.170Z,93395.28
2018-03-27T23:28:37.727Z,93400.24
2018-03-27T23:31:05.299Z,93394.07
2018-03-27T23:33:32.854Z,93393.28
2018-03-27T23:36:00.404Z,93394.55
2018-03-27T23:38:27.997Z,93383.81
2018-03-27T23:40:55.567Z,93383.39
2018-03-27T23:43:23.740Z,93385.91
2018-03-27T23:45:51.309Z,93376.44
2018-03-27T23:48:18.878Z,93383.94
2018-03-27T23:50:46.439Z,93381.08
2018-03-27T23:53:14.166Z,93378.59
2018-03-27T23:55:41.727Z,93377.80
2018-03-27T23:58:09.298Z,93381.52
